sensor_id;sensor_type;location;lat;lon;timestamp;P1;durP1;ratioP1;P2;durP2;ratioP2
2888;SDS011;1453;42.708;23.282;2022-09-14T00:01:15;10.10;;;9.00;;
2888;SDS011;1453;42.708;23.282;2022-09-14T00:03:45;9.53;;;8.53;;
2888;SDS011;1453;42.708;23.282;2022-09-14T00:06:12;10.27;;;9.37;;
2888;SDS011;1453;42.708;23.282;2022-09-14T00:08:40;9.77;;;8.77;;
2888;SDS011;1453;42.708;23.282;2022-09-14T00:11:08;14.43;;;8.80;;
2888;SDS011;1453;42.708;23.282;2022-09-14T00:13:39;9.77;;;8.80;;
2888;SDS011;1453;42.708;23.282;2022-09-14T00:16:09;13.30;;;9.37;;
2888;SDS011;1453;42.708;23.282;2022-09-14T00:18:39;10.40;;;9.30;;
2888;SDS011;1453;42.708;23.282;2022-09-14T00:21:07;9.97;;;8.60;;
2888;SDS011;1453;42.708;23.282;2022-09-14T00:23:35;8.90;;;8.03;;
2888;SDS011;1453;42.708;23.282;2022-09-14T00:26:04;73.90;;;46.43;;
2888;SDS011;1453;42.708;23.282;2022-09-14T00:28:37;20.17;;;16.70;;
2888;SDS011;1453;42.708;23.282;2022-09-14T00:31:05;11.43;;;10.20;;
2888;SDS011;1453;42.708;23.282;2022-09-14T00:33:32;17.00;;;13.50;;
2888;SDS011;1453;42.708;23.282;2022-09-14T00:36:19;13.23;;;9.80;;
2888;SDS011;1453;42.708;23.282;2022-09-14T00:38:47;15.40;;;10.83;;
2888;SDS011;1453;42.708;23.282;2022-09-14T00:41:16;16.07;;;11.27;;
2888;SDS011;1453;42.708;23.282;2022-09-14T00:43:51;11.93;;;9.03;;
2888;SDS011;1453;42.708;23.282;2022-09-14T00:46:24;9.73;;;8.80;;
2888;SDS011;1453;42.708;23.282;2022-09-14T00:48:52;13.20;;;9.30;;
2888;SDS011;1453;42.708;23.282;2022-09-14T00:51:19;12.77;;;11.10;;
2888;SDS011;1453;42.708;23.282;2022-09-14T00:53:46;11.60;;;10.47;;
2888;SDS011;1453;42.708;23.282;2022-09-14T00:56:12;18.50;;;15.10;;
2888;SDS011;1453;42.708;23.282;2022-09-14T00:58:38;31.30;;;19.60;;
2888;SDS011;1453;42.708;23.282;2022-09-14T01:01:06;9.90;;;8.90;;
2888;SDS011;1453;42.708;23.282;2022-09-14T01:03:33;28.20;;;21.13;;
2888;SDS011;1453;42.708;23.282;2022-09-14T01:06:02;10.53;;;9.33;;
2888;SDS011;1453;42.708;23.282;2022-09-14T01:09:01;25.50;;;18.30;;
2888;SDS011;1453;42.708;23.282;2022-09-14T01:12:07;11.37;;;8.67;;
2888;SDS011;1453;42.708;23.282;2022-09-14T01:17:55;8.83;;;7.93;;
2888;SDS011;1453;42.708;23.282;2022-09-14T01:20:54;12.07;;;9.00;;
2888;SDS011;1453;42.708;23.282;2022-09-14T01:23:53;17.43;;;8.13;;
2888;SDS011;1453;42.708;23.282;2022-09-14T01:29:32;8.87;;;7.97;;
2888;SDS011;1453;42.708;23.282;2022-09-14T01:34:55;9.83;;;8.83;;
2888;SDS011;1453;42.708;23.282;2022-09-14T01:37:47;10.37;;;8.50;;
2888;SDS011;1453;42.708;23.282;2022-09-14T01:40:28;13.50;;;11.10;;
2888;SDS011;1453;42.708;23.282;2022-09-14T01:43:04;12.07;;;9.00;;
2888;SDS011;1453;42.708;23.282;2022-09-14T01:45:35;10.27;;;9.27;;
2888;SDS011;1453;42.708;23.282;2022-09-14T01:48:06;12.00;;;9.70;;
2888;SDS011;1453;42.708;23.282;2022-09-14T01:50:39;10.47;;;9.47;;
2888;SDS011;1453;42.708;23.282;2022-09-14T01:55:43;9.87;;;8.67;;
2888;SDS011;1453;42.708;23.282;2022-09-14T02:01:01;9.83;;;8.83;;
2888;SDS011;1453;42.708;23.282;2022-09-14T02:03:38;9.77;;;8.77;;
2888;SDS011;1453;42.708;23.282;2022-09-14T02:06:22;22.73;;;17.73;;
2888;SDS011;1453;42.708;23.282;2022-09-14T02:08:56;25.00;;;18.63;;
2888;SDS011;1453;42.708;23.282;2022-09-14T02:11:24;31.37;;;22.17;;
2888;SDS011;1453;42.708;23.282;2022-09-14T02:13:50;11.33;;;10.13;;
2888;SDS011;1453;42.708;23.282;2022-09-14T02:16:16;23.90;;;19.40;;
2888;SDS011;1453;42.708;23.282;2022-09-14T02:18:43;22.07;;;17.40;;
2888;SDS011;1453;42.708;23.282;2022-09-14T02:21:14;12.87;;;10.63;;
2888;SDS011;1453;42.708;23.282;2022-09-14T02:23:45;27.23;;;20.33;;
2888;SDS011;1453;42.708;23.282;2022-09-14T02:26:13;17.83;;;14.63;;
2888;SDS011;1453;42.708;23.282;2022-09-14T02:28:40;24.80;;;19.90;;
2888;SDS011;1453;42.708;23.282;2022-09-14T02:39:43;12.03;;;10.63;;
2888;SDS011;1453;42.708;23.282;2022-09-14T02:45:17;10.93;;;9.87;;
2888;SDS011;1453;42.708;23.282;2022-09-14T02:51:08;12.83;;;11.47;;
2888;SDS011;1453;42.708;23.282;2022-09-14T02:56:26;28.20;;;19.73;;
2888;SDS011;1453;42.708;23.282;2022-09-14T02:58:53;39.63;;;27.00;;
2888;SDS011;1453;42.708;23.282;2022-09-14T03:01:20;14.87;;;13.33;;
2888;SDS011;1453;42.708;23.282;2022-09-14T03:03:48;15.97;;;11.37;;
2888;SDS011;1453;42.708;23.282;2022-09-14T03:06:14;17.00;;;11.87;;
2888;SDS011;1453;42.708;23.282;2022-09-14T03:08:41;19.27;;;15.20;;
2888;SDS011;1453;42.708;23.282;2022-09-14T03:11:07;13.77;;;11.80;;
2888;SDS011;1453;42.708;23.282;2022-09-14T03:13:34;14.07;;;12.57;;
2888;SDS011;1453;42.708;23.282;2022-09-14T03:16:05;16.50;;;13.73;;
2888;SDS011;1453;42.708;23.282;2022-09-14T03:18:40;15.07;;;13.00;;
2888;SDS011;1453;42.708;23.282;2022-09-14T03:21:07;17.70;;;12.93;;
2888;SDS011;1453;42.708;23.282;2022-09-14T03:23:44;14.83;;;12.73;;
2888;SDS011;1453;42.708;23.282;2022-09-14T03:26:14;14.87;;;12.30;;
2888;SDS011;1453;42.708;23.282;2022-09-14T03:28:43;13.10;;;11.73;;
2888;SDS011;1453;42.708;23.282;2022-09-14T03:31:16;14.40;;;11.70;;
2888;SDS011;1453;42.708;23.282;2022-09-14T03:33:43;13.27;;;10.50;;
2888;SDS011;1453;42.708;23.282;2022-09-14T03:38:37;14.57;;;11.87;;
2888;SDS011;1453;42.708;23.282;2022-09-14T03:41:08;11.57;;;10.40;;
2888;SDS011;1453;42.708;23.282;2022-09-14T03:43:34;12.03;;;10.80;;
2888;SDS011;1453;42.708;23.282;2022-09-14T03:46:06;11.40;;;9.93;;
2888;SDS011;1453;42.708;23.282;2022-09-14T03:48:46;12.00;;;10.80;;
2888;SDS011;1453;42.708;23.282;2022-09-14T03:51:13;18.60;;;11.63;;
2888;SDS011;1453;42.708;23.282;2022-09-14T03:53:39;12.90;;;11.50;;
2888;SDS011;1453;42.708;23.282;2022-09-14T03:56:07;11.30;;;10.10;;
2888;SDS011;1453;42.708;23.282;2022-09-14T03:58:36;14.07;;;12.67;;
2888;SDS011;1453;42.708;23.282;2022-09-14T04:01:06;17.67;;;12.70;;
2888;SDS011;1453;42.708;23.282;2022-09-14T04:03:35;16.37;;;12.67;;
2888;SDS011;1453;42.708;23.282;2022-09-14T04:06:02;14.50;;;11.57;;
2888;SDS011;1453;42.708;23.282;2022-09-14T04:08:31;13.67;;;12.13;;
2888;SDS011;1453;42.708;23.282;2022-09-14T04:10:58;14.03;;;12.53;;
2888;SDS011;1453;42.708;23.282;2022-09-14T04:13:24;14.60;;;11.27;;
2888;SDS011;1453;42.708;23.282;2022-09-14T04:15:57;14.17;;;12.03;;
2888;SDS011;1453;42.708;23.282;2022-09-14T04:18:24;15.10;;;12.00;;
2888;SDS011;1453;42.708;23.282;2022-09-14T04:20:58;14.10;;;11.10;;
2888;SDS011;1453;42.708;23.282;2022-09-14T04:23:38;13.60;;;12.20;;
2888;SDS011;1453;42.708;23.282;2022-09-14T04:26:14;14.47;;;12.20;;
2888;SDS011;1453;42.708;23.282;2022-09-14T04:28:42;12.70;;;11.40;;
2888;SDS011;1453;42.708;23.282;2022-09-14T04:31:09;15.17;;;12.90;;
2888;SDS011;1453;42.708;23.282;2022-09-14T04:33:37;16.27;;;11.20;;
2888;SDS011;1453;42.708;23.282;2022-09-14T04:36:14;16.00;;;12.53;;
2888;SDS011;1453;42.708;23.282;2022-09-14T04:38:46;16.63;;;14.03;;
2888;SDS011;1453;42.708;23.282;2022-09-14T04:41:17;20.40;;;15.20;;
2888;SDS011;1453;42.708;23.282;2022-09-14T04:43:45;21.50;;;15.37;;
2888;SDS011;1453;42.708;23.282;2022-09-14T04:46:14;16.00;;;14.47;;
2888;SDS011;1453;42.708;23.282;2022-09-14T04:48:43;16.07;;;14.60;;
2888;SDS011;1453;42.708;23.282;2022-09-14T04:51:11;14.57;;;12.80;;
2888;SDS011;1453;42.708;23.282;2022-09-14T04:53:48;17.43;;;15.63;;
2888;SDS011;1453;42.708;23.282;2022-09-14T04:56:16;19.20;;;15.90;;
2888;SDS011;1453;42.708;23.282;2022-09-14T04:58:45;17.97;;;14.90;;
2888;SDS011;1453;42.708;23.282;2022-09-14T05:01:14;19.90;;;15.47;;
2888;SDS011;1453;42.708;23.282;2022-09-14T05:03:43;18.07;;;15.50;;
2888;SDS011;1453;42.708;23.282;2022-09-14T05:06:13;21.07;;;15.00;;
2888;SDS011;1453;42.708;23.282;2022-09-14T05:08:45;21.87;;;15.77;;
2888;SDS011;1453;42.708;23.282;2022-09-14T05:11:12;18.43;;;15.37;;
2888;SDS011;1453;42.708;23.282;2022-09-14T05:13:46;20.30;;;15.57;;
2888;SDS011;1453;42.708;23.282;2022-09-14T05:16:19;17.20;;;14.77;;
2888;SDS011;1453;42.708;23.282;2022-09-14T05:18:52;21.03;;;16.10;;
2888;SDS011;1453;42.708;23.282;2022-09-14T05:21:21;18.03;;;15.30;;
2888;SDS011;1453;42.708;23.282;2022-09-14T05:23:51;23.50;;;16.80;;
2888;SDS011;1453;42.708;23.282;2022-09-14T05:26:26;19.60;;;16.50;;
2888;SDS011;1453;42.708;23.282;2022-09-14T05:28:54;20.27;;;15.40;;
2888;SDS011;1453;42.708;23.282;2022-09-14T05:31:22;16.60;;;14.93;;
2888;SDS011;1453;42.708;23.282;2022-09-14T05:33:50;19.73;;;16.00;;
2888;SDS011;1453;42.708;23.282;2022-09-14T05:36:17;15.17;;;13.57;;
2888;SDS011;1453;42.708;23.282;2022-09-14T05:38:43;19.17;;;14.70;;
2888;SDS011;1453;42.708;23.282;2022-09-14T05:41:10;16.77;;;13.70;;
2888;SDS011;1453;42.708;23.282;2022-09-14T05:43:38;21.20;;;15.03;;
2888;SDS011;1453;42.708;23.282;2022-09-14T05:46:06;22.53;;;13.00;;
2888;SDS011;1453;42.708;23.282;2022-09-14T05:48:35;17.53;;;13.87;;
2888;SDS011;1453;42.708;23.282;2022-09-14T05:51:03;18.90;;;14.07;;
2888;SDS011;1453;42.708;23.282;2022-09-14T05:53:41;19.93;;;13.90;;
2888;SDS011;1453;42.708;23.282;2022-09-14T05:56:12;17.47;;;13.27;;
2888;SDS011;1453;42.708;23.282;2022-09-14T05:58:38;15.43;;;13.83;;
2888;SDS011;1453;42.708;23.282;2022-09-14T06:01:28;20.67;;;14.07;;
2888;SDS011;1453;42.708;23.282;2022-09-14T06:03:55;17.10;;;13.73;;
2888;SDS011;1453;42.708;23.282;2022-09-14T06:06:24;14.33;;;12.83;;
2888;SDS011;1453;42.708;23.282;2022-09-14T06:08:50;18.50;;;13.80;;
2888;SDS011;1453;42.708;23.282;2022-09-14T06:11:20;16.13;;;12.90;;
2888;SDS011;1453;42.708;23.282;2022-09-14T06:13:49;17.10;;;12.53;;
2888;SDS011;1453;42.708;23.282;2022-09-14T06:16:16;21.33;;;13.33;;
2888;SDS011;1453;42.708;23.282;2022-09-14T06:18:44;14.73;;;9.87;;
2888;SDS011;1453;42.708;23.282;2022-09-14T06:21:12;13.03;;;9.90;;
2888;SDS011;1453;42.708;23.282;2022-09-14T06:23:40;10.77;;;9.67;;
2888;SDS011;1453;42.708;23.282;2022-09-14T06:26:07;11.43;;;10.13;;
2888;SDS011;1453;42.708;23.282;2022-09-14T06:28:34;10.17;;;9.17;;
2888;SDS011;1453;42.708;23.282;2022-09-14T06:31:00;12.73;;;8.93;;
2888;SDS011;1453;42.708;23.282;2022-09-14T06:33:31;13.03;;;10.30;;
2888;SDS011;1453;42.708;23.282;2022-09-14T06:35:59;11.23;;;9.70;;
2888;SDS011;1453;42.708;23.282;2022-09-14T06:38:36;11.43;;;10.23;;
2888;SDS011;1453;42.708;23.282;2022-09-14T06:41:05;13.97;;;9.37;;
2888;SDS011;1453;42.708;23.282;2022-09-14T06:43:34;10.50;;;8.80;;
2888;SDS011;1453;42.708;23.282;2022-09-14T06:46:06;10.97;;;8.37;;
2888;SDS011;1453;42.708;23.282;2022-09-14T06:48:45;10.40;;;7.93;;
2888;SDS011;1453;42.708;23.282;2022-09-14T06:51:20;9.70;;;8.70;;
2888;SDS011;1453;42.708;23.282;2022-09-14T06:53:49;8.73;;;7.93;;
2888;SDS011;1453;42.708;23.282;2022-09-14T06:56:17;9.30;;;7.27;;
2888;SDS011;1453;42.708;23.282;2022-09-14T06:58:44;13.00;;;7.83;;
2888;SDS011;1453;42.708;23.282;2022-09-14T07:01:11;9.20;;;8.30;;
2888;SDS011;1453;42.708;23.282;2022-09-14T07:03:39;9.53;;;7.03;;
2888;SDS011;1453;42.708;23.282;2022-09-14T07:06:08;13.43;;;6.77;;
2888;SDS011;1453;42.708;23.282;2022-09-14T07:08:39;7.13;;;6.43;;
2888;SDS011;1453;42.708;23.282;2022-09-14T07:11:07;9.00;;;6.80;;
2888;SDS011;1453;42.708;23.282;2022-09-14T07:13:35;8.67;;;6.90;;
2888;SDS011;1453;42.708;23.282;2022-09-14T07:16:01;7.63;;;6.90;;
2888;SDS011;1453;42.708;23.282;2022-09-14T07:18:28;8.50;;;7.60;;
2888;SDS011;1453;42.708;23.282;2022-09-14T07:21:11;12.97;;;7.70;;
2888;SDS011;1453;42.708;23.282;2022-09-14T07:23:40;8.00;;;7.03;;
2888;SDS011;1453;42.708;23.282;2022-09-14T07:26:12;10.50;;;7.80;;
2888;SDS011;1453;42.708;23.282;2022-09-14T07:28:51;9.70;;;7.67;;
2888;SDS011;1453;42.708;23.282;2022-09-14T07:31:27;9.70;;;7.93;;
2888;SDS011;1453;42.708;23.282;2022-09-14T07:34:00;8.63;;;7.60;;
2888;SDS011;1453;42.708;23.282;2022-09-14T07:36:27;9.10;;;7.97;;
2888;SDS011;1453;42.708;23.282;2022-09-14T07:38:55;8.00;;;6.90;;
2888;SDS011;1453;42.708;23.282;2022-09-14T07:41:22;11.47;;;8.10;;
2888;SDS011;1453;42.708;23.282;2022-09-14T07:43:51;12.97;;;8.13;;
2888;SDS011;1453;42.708;23.282;2022-09-14T07:46:20;10.60;;;8.17;;
2888;SDS011;1453;42.708;23.282;2022-09-14T07:48:47;9.37;;;8.47;;
2888;SDS011;1453;42.708;23.282;2022-09-14T07:51:19;9.53;;;7.57;;
2888;SDS011;1453;42.708;23.282;2022-09-14T07:53:45;14.73;;;8.00;;
2888;SDS011;1453;42.708;23.282;2022-09-14T07:56:11;10.73;;;8.80;;
2888;SDS011;1453;42.708;23.282;2022-09-14T07:58:39;9.87;;;8.73;;
2888;SDS011;1453;42.708;23.282;2022-09-14T08:01:06;10.33;;;8.40;;
2888;SDS011;1453;42.708;23.282;2022-09-14T08:03:36;10.37;;;7.43;;
2888;SDS011;1453;42.708;23.282;2022-09-14T08:06:05;10.43;;;8.40;;
2888;SDS011;1453;42.708;23.282;2022-09-14T08:08:37;9.53;;;8.63;;
2888;SDS011;1453;42.708;23.282;2022-09-14T08:11:13;12.37;;;9.20;;
2888;SDS011;1453;42.708;23.282;2022-09-14T08:13:45;14.63;;;9.47;;
2888;SDS011;1453;42.708;23.282;2022-09-14T08:16:14;10.93;;;9.83;;
2888;SDS011;1453;42.708;23.282;2022-09-14T08:18:43;13.17;;;11.10;;
2888;SDS011;1453;42.708;23.282;2022-09-14T08:21:10;12.53;;;10.50;;
2888;SDS011;1453;42.708;23.282;2022-09-14T08:23:41;11.17;;;9.87;;
2888;SDS011;1453;42.708;23.282;2022-09-14T08:26:10;15.17;;;11.03;;
2888;SDS011;1453;42.708;23.282;2022-09-14T08:28:44;13.40;;;10.30;;
2888;SDS011;1453;42.708;23.282;2022-09-14T08:31:12;14.10;;;10.57;;
2888;SDS011;1453;42.708;23.282;2022-09-14T08:33:54;12.40;;;10.80;;
2888;SDS011;1453;42.708;23.282;2022-09-14T08:36:27;16.23;;;9.80;;
2888;SDS011;1453;42.708;23.282;2022-09-14T08:38:55;13.30;;;10.40;;
2888;SDS011;1453;42.708;23.282;2022-09-14T08:44:01;13.10;;;11.90;;
2888;SDS011;1453;42.708;23.282;2022-09-14T08:46:39;13.40;;;9.70;;
2888;SDS011;1453;42.708;23.282;2022-09-14T08:49:17;12.37;;;10.07;;
2888;SDS011;1453;42.708;23.282;2022-09-14T08:52:01;12.67;;;10.60;;
2888;SDS011;1453;42.708;23.282;2022-09-14T08:54:27;19.50;;;11.70;;
2888;SDS011;1453;42.708;23.282;2022-09-14T08:57:13;12.70;;;10.27;;
2888;SDS011;1453;42.708;23.282;2022-09-14T09:00:30;15.50;;;8.77;;
2888;SDS011;1453;42.708;23.282;2022-09-14T09:05:52;11.33;;;9.90;;
2888;SDS011;1453;42.708;23.282;2022-09-14T09:11:19;15.33;;;8.70;;
2888;SDS011;1453;42.708;23.282;2022-09-14T09:13:49;10.30;;;9.30;;
2888;SDS011;1453;42.708;23.282;2022-09-14T09:16:18;12.43;;;9.37;;
2888;SDS011;1453;42.708;23.282;2022-09-14T09:19:10;10.20;;;8.60;;
2888;SDS011;1453;42.708;23.282;2022-09-14T09:21:42;10.33;;;9.20;;
2888;SDS011;1453;42.708;23.282;2022-09-14T09:24:24;15.83;;;8.73;;
2888;SDS011;1453;42.708;23.282;2022-09-14T09:27:13;13.40;;;8.60;;
2888;SDS011;1453;42.708;23.282;2022-09-14T09:29:41;10.33;;;8.83;;
2888;SDS011;1453;42.708;23.282;2022-09-14T09:32:18;10.10;;;8.47;;
2888;SDS011;1453;42.708;23.282;2022-09-14T09:34:49;9.90;;;7.90;;
2888;SDS011;1453;42.708;23.282;2022-09-14T09:37:19;11.40;;;8.73;;
2888;SDS011;1453;42.708;23.282;2022-09-14T09:39:47;8.23;;;7.43;;
2888;SDS011;1453;42.708;23.282;2022-09-14T09:42:24;14.00;;;8.53;;
2888;SDS011;1453;42.708;23.282;2022-09-14T09:50:14;9.30;;;6.43;;
2888;SDS011;1453;42.708;23.282;2022-09-14T09:52:49;10.77;;;7.30;;
2888;SDS011;1453;42.708;23.282;2022-09-14T09:55:20;11.87;;;7.47;;
2888;SDS011;1453;42.708;23.282;2022-09-14T09:57:51;7.77;;;5.50;;
2888;SDS011;1453;42.708;23.282;2022-09-14T10:02:49;9.83;;;6.60;;
2888;SDS011;1453;42.708;23.282;2022-09-14T10:10:13;6.23;;;5.63;;
2888;SDS011;1453;42.708;23.282;2022-09-14T10:12:49;9.10;;;5.03;;
2888;SDS011;1453;42.708;23.282;2022-09-14T10:20:36;5.83;;;4.70;;
2888;SDS011;1453;42.708;23.282;2022-09-14T10:25:43;8.10;;;5.70;;
2888;SDS011;1453;42.708;23.282;2022-09-14T10:30:57;5.20;;;4.07;;
2888;SDS011;1453;42.708;23.282;2022-09-14T10:33:44;5.43;;;3.40;;
2888;SDS011;1453;42.708;23.282;2022-09-14T10:36:23;5.20;;;4.70;;
2888;SDS011;1453;42.708;23.282;2022-09-14T10:39:17;6.30;;;2.93;;
2888;SDS011;1453;42.708;23.282;2022-09-14T10:42:37;3.63;;;3.23;;
2888;SDS011;1453;42.708;23.282;2022-09-14T10:45:10;4.37;;;3.10;;
2888;SDS011;1453;42.708;23.282;2022-09-14T11:23:20;5.17;;;2.70;;
2888;SDS011;1453;42.708;23.282;2022-09-14T11:25:53;3.97;;;3.23;;
2888;SDS011;1453;42.708;23.282;2022-09-14T11:28:30;3.43;;;2.50;;
2888;SDS011;1453;42.708;23.282;2022-09-14T11:31:14;5.67;;;3.20;;
2888;SDS011;1453;42.708;23.282;2022-09-14T11:33:58;4.77;;;2.60;;
2888;SDS011;1453;42.708;23.282;2022-09-14T11:36:54;5.80;;;3.27;;
2888;SDS011;1453;42.708;23.282;2022-09-14T11:39:28;6.10;;;3.33;;
2888;SDS011;1453;42.708;23.282;2022-09-14T11:42:01;3.57;;;3.27;;
2888;SDS011;1453;42.708;23.282;2022-09-14T11:44:34;3.30;;;3.00;;
2888;SDS011;1453;42.708;23.282;2022-09-14T11:47:13;3.40;;;2.80;;
2888;SDS011;1453;42.708;23.282;2022-09-14T11:49:51;5.23;;;3.27;;
2888;SDS011;1453;42.708;23.282;2022-09-14T11:52:31;6.00;;;3.20;;
2888;SDS011;1453;42.708;23.282;2022-09-14T11:54:58;8.00;;;3.83;;
2888;SDS011;1453;42.708;23.282;2022-09-14T11:57:29;3.37;;;3.07;;
2888;SDS011;1453;42.708;23.282;2022-09-14T12:15:43;5.10;;;3.30;;
2888;SDS011;1453;42.708;23.282;2022-09-14T12:18:14;3.80;;;2.73;;
2888;SDS011;1453;42.708;23.282;2022-09-14T12:21:33;4.77;;;4.27;;
2888;SDS011;1453;42.708;23.282;2022-09-14T12:23:51;7.47;;;3.93;;
2888;SDS011;1453;42.708;23.282;2022-09-14T12:26:35;7.40;;;3.13;;
2888;SDS011;1453;42.708;23.282;2022-09-14T12:32:22;3.23;;;2.93;;
2888;SDS011;1453;42.708;23.282;2022-09-14T12:43:53;3.83;;;3.07;;
2888;SDS011;1453;42.708;23.282;2022-09-14T12:48:58;3.27;;;2.90;;
2888;SDS011;1453;42.708;23.282;2022-09-14T12:51:46;7.90;;;3.17;;
2888;SDS011;1453;42.708;23.282;2022-09-14T12:54:24;3.50;;;3.17;;
2888;SDS011;1453;42.708;23.282;2022-09-14T13:00:03;3.27;;;2.60;;
2888;SDS011;1453;42.708;23.282;2022-09-14T13:05:26;5.30;;;3.30;;
2888;SDS011;1453;42.708;23.282;2022-09-14T13:07:54;3.10;;;2.73;;
2888;SDS011;1453;42.708;23.282;2022-09-14T13:10:23;3.87;;;3.43;;
2888;SDS011;1453;42.708;23.282;2022-09-14T13:12:56;2.93;;;2.63;;
2888;SDS011;1453;42.708;23.282;2022-09-14T13:15:25;4.60;;;3.13;;
2888;SDS011;1453;42.708;23.282;2022-09-14T13:20:48;4.73;;;3.60;;
2888;SDS011;1453;42.708;23.282;2022-09-14T13:23:37;3.20;;;2.67;;
2888;SDS011;1453;42.708;23.282;2022-09-14T13:26:16;3.83;;;2.93;;
2888;SDS011;1453;42.708;23.282;2022-09-14T13:28:46;3.40;;;2.73;;
2888;SDS011;1453;42.708;23.282;2022-09-14T13:31:26;3.57;;;2.70;;
2888;SDS011;1453;42.708;23.282;2022-09-14T13:33:58;3.23;;;2.60;;
2888;SDS011;1453;42.708;23.282;2022-09-14T13:36:28;3.00;;;2.70;;
2888;SDS011;1453;42.708;23.282;2022-09-14T13:38:59;3.03;;;2.47;;
2888;SDS011;1453;42.708;23.282;2022-09-14T13:41:28;4.30;;;2.87;;
2888;SDS011;1453;42.708;23.282;2022-09-14T13:43:56;5.07;;;3.40;;
2888;SDS011;1453;42.708;23.282;2022-09-14T13:46:23;3.17;;;2.87;;
2888;SDS011;1453;42.708;23.282;2022-09-14T13:48:51;7.47;;;3.17;;
2888;SDS011;1453;42.708;23.282;2022-09-14T13:51:21;4.83;;;3.50;;
2888;SDS011;1453;42.708;23.282;2022-09-14T13:53:54;4.60;;;2.70;;
2888;SDS011;1453;42.708;23.282;2022-09-14T13:56:40;3.03;;;2.73;;
2888;SDS011;1453;42.708;23.282;2022-09-14T13:59:14;3.17;;;2.53;;
2888;SDS011;1453;42.708;23.282;2022-09-14T14:01:53;3.83;;;2.40;;
2888;SDS011;1453;42.708;23.282;2022-09-14T14:09:56;5.10;;;3.30;;
2888;SDS011;1453;42.708;23.282;2022-09-14T14:12:27;4.00;;;2.60;;
2888;SDS011;1453;42.708;23.282;2022-09-14T14:14:58;3.67;;;2.53;;
2888;SDS011;1453;42.708;23.282;2022-09-14T14:17:49;4.10;;;2.93;;
2888;SDS011;1453;42.708;23.282;2022-09-14T14:20:29;4.40;;;2.93;;
2888;SDS011;1453;42.708;23.282;2022-09-14T14:23:17;4.27;;;2.73;;
2888;SDS011;1453;42.708;23.282;2022-09-14T14:25:47;3.70;;;2.80;;
2888;SDS011;1453;42.708;23.282;2022-09-14T14:28:37;3.20;;;2.60;;
2888;SDS011;1453;42.708;23.282;2022-09-14T14:31:16;3.23;;;2.63;;
2888;SDS011;1453;42.708;23.282;2022-09-14T14:33:48;4.00;;;2.73;;
2888;SDS011;1453;42.708;23.282;2022-09-14T14:36:18;4.47;;;2.70;;
2888;SDS011;1453;42.708;23.282;2022-09-14T14:38:46;4.53;;;2.77;;
2888;SDS011;1453;42.708;23.282;2022-09-14T14:41:15;3.63;;;2.90;;
2888;SDS011;1453;42.708;23.282;2022-09-14T14:43:44;3.10;;;2.80;;
2888;SDS011;1453;42.708;23.282;2022-09-14T14:46:14;3.43;;;3.00;;
2888;SDS011;1453;42.708;23.282;2022-09-14T14:48:41;3.97;;;3.10;;
2888;SDS011;1453;42.708;23.282;2022-09-14T14:51:11;4.60;;;3.00;;
2888;SDS011;1453;42.708;23.282;2022-09-14T14:53:39;3.77;;;2.73;;
2888;SDS011;1453;42.708;23.282;2022-09-14T14:56:06;3.33;;;3.03;;
2888;SDS011;1453;42.708;23.282;2022-09-14T14:58:40;3.93;;;2.90;;
2888;SDS011;1453;42.708;23.282;2022-09-14T15:01:08;4.53;;;3.10;;
2888;SDS011;1453;42.708;23.282;2022-09-14T15:03:34;6.03;;;3.53;;
2888;SDS011;1453;42.708;23.282;2022-09-14T15:06:09;3.40;;;3.10;;
2888;SDS011;1453;42.708;23.282;2022-09-14T15:08:39;3.47;;;2.93;;
2888;SDS011;1453;42.708;23.282;2022-09-14T15:11:08;5.67;;;5.17;;
2888;SDS011;1453;42.708;23.282;2022-09-14T15:13:44;3.17;;;2.80;;
2888;SDS011;1453;42.708;23.282;2022-09-14T15:16:11;5.13;;;3.13;;
2888;SDS011;1453;42.708;23.282;2022-09-14T15:18:38;5.43;;;3.03;;
2888;SDS011;1453;42.708;23.282;2022-09-14T15:21:05;3.07;;;2.77;;
2888;SDS011;1453;42.708;23.282;2022-09-14T15:23:31;3.90;;;3.13;;
2888;SDS011;1453;42.708;23.282;2022-09-14T15:25:57;3.90;;;3.40;;
2888;SDS011;1453;42.708;23.282;2022-09-14T15:28:23;3.07;;;2.77;;
2888;SDS011;1453;42.708;23.282;2022-09-14T15:30:49;4.00;;;2.93;;
2888;SDS011;1453;42.708;23.282;2022-09-14T15:33:16;4.83;;;2.93;;
2888;SDS011;1453;42.708;23.282;2022-09-14T15:35:43;3.00;;;2.60;;
2888;SDS011;1453;42.708;23.282;2022-09-14T15:38:09;3.90;;;2.97;;
2888;SDS011;1453;42.708;23.282;2022-09-14T15:40:35;3.70;;;3.00;;
2888;SDS011;1453;42.708;23.282;2022-09-14T15:43:02;5.67;;;3.60;;
2888;SDS011;1453;42.708;23.282;2022-09-14T15:45:28;4.10;;;3.37;;
2888;SDS011;1453;42.708;23.282;2022-09-14T15:47:54;4.90;;;3.00;;
2888;SDS011;1453;42.708;23.282;2022-09-14T15:50:19;4.90;;;2.97;;
2888;SDS011;1453;42.708;23.282;2022-09-14T15:52:45;3.97;;;2.80;;
2888;SDS011;1453;42.708;23.282;2022-09-14T15:55:12;7.70;;;2.80;;
2888;SDS011;1453;42.708;23.282;2022-09-14T15:57:38;3.60;;;3.23;;
2888;SDS011;1453;42.708;23.282;2022-09-14T16:00:07;5.00;;;3.43;;
2888;SDS011;1453;42.708;23.282;2022-09-14T16:02:37;4.10;;;3.10;;
2888;SDS011;1453;42.708;23.282;2022-09-14T16:05:07;3.50;;;3.10;;
2888;SDS011;1453;42.708;23.282;2022-09-14T16:07:35;7.63;;;3.10;;
2888;SDS011;1453;42.708;23.282;2022-09-14T16:10:02;3.57;;;2.43;;
2888;SDS011;1453;42.708;23.282;2022-09-14T16:12:28;6.37;;;3.80;;
2888;SDS011;1453;42.708;23.282;2022-09-14T16:14:53;2.93;;;2.60;;
2888;SDS011;1453;42.708;23.282;2022-09-14T16:17:19;5.57;;;3.57;;
2888;SDS011;1453;42.708;23.282;2022-09-14T16:19:45;4.90;;;2.80;;
2888;SDS011;1453;42.708;23.282;2022-09-14T16:22:13;6.07;;;3.40;;
2888;SDS011;1453;42.708;23.282;2022-09-14T16:24:39;4.63;;;3.03;;
2888;SDS011;1453;42.708;23.282;2022-09-14T16:27:04;8.60;;;3.60;;
2888;SDS011;1453;42.708;23.282;2022-09-14T16:29:30;9.20;;;3.00;;
2888;SDS011;1453;42.708;23.282;2022-09-14T16:31:56;6.60;;;3.33;;
2888;SDS011;1453;42.708;23.282;2022-09-14T16:34:23;5.20;;;3.33;;
2888;SDS011;1453;42.708;23.282;2022-09-14T16:36:52;7.40;;;3.80;;
2888;SDS011;1453;42.708;23.282;2022-09-14T16:39:20;5.47;;;3.67;;
2888;SDS011;1453;42.708;23.282;2022-09-14T16:41:49;5.67;;;3.37;;
2888;SDS011;1453;42.708;23.282;2022-09-14T16:44:17;3.43;;;2.90;;
2888;SDS011;1453;42.708;23.282;2022-09-14T16:46:46;6.17;;;3.40;;
2888;SDS011;1453;42.708;23.282;2022-09-14T16:49:13;7.00;;;3.97;;
2888;SDS011;1453;42.708;23.282;2022-09-14T16:51:40;8.90;;;4.13;;
2888;SDS011;1453;42.708;23.282;2022-09-14T16:54:07;6.77;;;4.03;;
2888;SDS011;1453;42.708;23.282;2022-09-14T16:56:35;6.60;;;4.37;;
2888;SDS011;1453;42.708;23.282;2022-09-14T16:59:02;5.03;;;4.40;;
2888;SDS011;1453;42.708;23.282;2022-09-14T17:01:30;12.53;;;5.57;;
2888;SDS011;1453;42.708;23.282;2022-09-14T17:04:00;6.23;;;4.60;;
2888;SDS011;1453;42.708;23.282;2022-09-14T17:06:32;6.67;;;4.80;;
2888;SDS011;1453;42.708;23.282;2022-09-14T17:09:04;7.73;;;4.70;;
2888;SDS011;1453;42.708;23.282;2022-09-14T17:11:35;6.53;;;5.07;;
2888;SDS011;1453;42.708;23.282;2022-09-14T17:14:02;9.47;;;5.50;;
2888;SDS011;1453;42.708;23.282;2022-09-14T17:16:29;6.67;;;4.80;;
2888;SDS011;1453;42.708;23.282;2022-09-14T17:18:58;5.10;;;4.60;;
2888;SDS011;1453;42.708;23.282;2022-09-14T17:21:28;10.27;;;5.90;;
2888;SDS011;1453;42.708;23.282;2022-09-14T17:24:00;6.33;;;5.10;;
2888;SDS011;1453;42.708;23.282;2022-09-14T17:26:28;7.13;;;4.73;;
2888;SDS011;1453;42.708;23.282;2022-09-14T17:28:55;8.20;;;5.90;;
2888;SDS011;1453;42.708;23.282;2022-09-14T17:31:26;7.73;;;4.40;;
2888;SDS011;1453;42.708;23.282;2022-09-14T17:33:55;7.10;;;4.87;;
2888;SDS011;1453;42.708;23.282;2022-09-14T17:36:22;11.20;;;5.83;;
2888;SDS011;1453;42.708;23.282;2022-09-14T17:38:49;6.43;;;4.60;;
2888;SDS011;1453;42.708;23.282;2022-09-14T17:41:19;5.73;;;5.10;;
2888;SDS011;1453;42.708;23.282;2022-09-14T17:43:51;8.53;;;4.93;;